Time;durP1;ratioP1;P1;durP2;ratioP2;P2;SDS_P1;SDS_P2;PMS_P1;PMS_P2;Temp;Humidity;BMP_temperature;BMP_pressure;BME280_temperature;BME280_humidity;BME280_pressure;Samples;Min_cycle;Max_cycle;Signal;HPM_P1;HPM_P2
2023/02/24 00:00:06;;;;;;;4.23;0.70;;;4.40;99.90;;;;;;5043235;28;20226;-51
2023/02/24 00:02:32;;;;;;;3.67;0.60;;;4.30;99.90;;;;;;5040795;28;20204;-54
2023/02/24 00:05:01;;;;;;;5.80;1.00;;;4.40;99.90;;;;;;5045123;28;20204;-52
2023/02/24 00:07:28;;;;;;;5.47;1.07;;;4.40;99.90;;;;;;5036523;28;20198;-52
2023/02/24 00:09:55;;;;;;;7.13;0.73;;;4.40;99.90;;;;;;5046114;28;20367;-52
2023/02/24 00:12:23;;;;;;;3.53;0.67;;;4.40;99.90;;;;;;5044733;28;20206;-56
2023/02/24 00:14:50;;;;;;;5.03;0.73;;;4.40;99.90;;;;;;5045038;28;20194;-51
2023/02/24 00:17:17;;;;;;;2.97;0.70;;;4.40;99.90;;;;;;5038061;28;20214;-55
2023/02/24 00:19:45;;;;;;;8.77;0.77;;;4.30;99.90;;;;;;5042363;28;20773;-51
2023/02/24 00:22:13;;;;;;;5.23;0.53;;;4.30;99.90;;;;;;5038638;28;20219;-57
2023/02/24 00:24:39;;;;;;;3.13;0.80;;;4.40;99.90;;;;;;5046514;28;20431;-51
2023/02/24 00:27:09;;;;;;;3.57;0.80;;;4.40;99.90;;;;;;5046174;28;20723;-55
2023/02/24 00:29:38;;;;;;;4.37;1.00;;;4.40;99.90;;;;;;5040223;28;20242;-51
2023/02/24 00:32:06;;;;;;;3.50;0.73;;;4.40;99.90;;;;;;5046640;28;20215;-56
2023/02/24 00:34:36;;;;;;;5.60;0.77;;;4.40;99.90;;;;;;5040087;28;20202;-52
2023/02/24 00:37:06;;;;;;;5.07;0.70;;;4.40;99.90;;;;;;5036209;28;20287;-54
2023/02/24 00:39:36;;;;;;;3.50;0.97;;;4.40;99.90;;;;;;5045803;28;20215;-50
2023/02/24 00:42:04;;;;;;;4.10;0.60;;;4.40;99.90;;;;;;5044401;28;20203;-52
2023/02/24 00:44:32;;;;;;;1.73;0.70;;;4.40;99.90;;;;;;5039670;28;20191;-50
2023/02/24 00:47:01;;;;;;;4.07;0.50;;;4.40;99.90;;;;;;5040214;28;20227;-48
2023/02/24 00:49:28;;;;;;;5.03;0.90;;;4.40;99.90;;;;;;5039099;28;20265;-52
2023/02/24 00:51:56;;;;;;;5.07;0.87;;;4.40;99.90;;;;;;5041954;28;20257;-52
2023/02/24 00:54:26;;;;;;;1.93;0.50;;;4.40;99.90;;;;;;5047434;28;20964;-50
2023/02/24 00:56:55;;;;;;;6.67;0.90;;;4.40;99.90;;;;;;5051401;28;20282;-52
2023/02/24 00:59:23;;;;;;;7.43;1.00;;;4.40;99.90;;;;;;5043105;28;20790;-53
2023/02/24 01:01:49;;;;;;;6.07;1.23;;;4.40;99.90;;;;;;5048741;28;20218;-49
2023/02/24 01:04:18;;;;;;;7.13;1.17;;;4.40;99.90;;;;;;5042909;28;20278;-55
2023/02/24 01:06:49;;;;;;;7.17;0.90;;;4.40;99.90;;;;;;5035578;28;20203;-51
2023/02/24 01:09:18;;;;;;;5.13;0.60;;;4.40;99.90;;;;;;5043129;28;20245;-56
2023/02/24 01:14:46;;;;;;;4.50;0.80;;;4.40;99.90;;;;;;5057825;28;20198;-49
2023/02/24 01:17:14;;;;;;;3.43;0.73;;;4.40;99.90;;;;;;5040409;28;20199;-54
2023/02/24 01:19:43;;;;;;;9.50;1.80;;;4.40;99.90;;;;;;5041524;28;20709;-50
2023/02/24 01:22:14;;;;;;;5.57;0.97;;;4.40;99.90;;;;;;5033248;28;20632;-54
2023/02/24 01:24:43;;;;;;;8.47;1.03;;;4.40;99.90;;;;;;5046113;28;20191;-53
2023/02/24 01:27:11;;;;;;;4.33;0.80;;;4.40;99.90;;;;;;5042982;28;20196;-56
2023/02/24 01:29:38;;;;;;;5.10;1.47;;;4.40;99.90;;;;;;5041058;28;20872;-51
2023/02/24 01:32:06;;;;;;;4.13;0.80;;;4.40;99.90;;;;;;5042220;28;20658;-56
2023/02/24 01:34:34;;;;;;;8.20;1.47;;;4.40;99.90;;;;;;5049263;28;20408;-53
2023/02/24 01:37:01;;;;;;;5.20;1.00;;;4.40;99.90;;;;;;5043428;28;20203;-54
2023/02/24 01:39:29;;;;;;;5.27;0.97;;;4.40;99.90;;;;;;5038153;28;20215;-54
2023/02/24 01:41:58;;;;;;;4.40;1.13;;;4.40;99.90;;;;;;5045271;28;20660;-50
2023/02/24 01:45:03;;;;;;;4.97;0.90;;;4.40;99.90;;;;;;5041692;28;20203;-53
2023/02/24 01:47:31;;;;;;;5.03;1.00;;;4.40;99.90;;;;;;5041240;28;20925;-50
2023/02/24 01:49:58;;;;;;;7.10;0.97;;;4.40;99.90;;;;;;5046547;28;20605;-50
2023/02/24 01:52:29;;;;;;;7.30;1.33;;;4.40;99.90;;;;;;5042510;28;20841;-52
2023/02/24 01:55:01;;;;;;;6.43;0.90;;;4.40;99.90;;;;;;5040030;28;20207;-53
2023/02/24 01:57:31;;;;;;;2.83;0.80;;;4.40;99.90;;;;;;5048564;28;20187;-53
2023/02/24 02:00:09;;;;;;;7.10;1.30;;;4.40;99.90;;;;;;5045026;28;20286;-52
2023/02/24 02:02:45;;;;;;;3.37;0.80;;;4.40;99.90;;;;;;5049811;28;20195;-55
2023/02/24 02:05:13;;;;;;;2.97;0.60;;;4.40;99.90;;;;;;5051918;28;20218;-57
2023/02/24 02:07:42;;;;;;;3.30;0.77;;;4.40;99.90;;;;;;5044794;28;20215;-52
2023/02/24 02:10:10;;;;;;;3.03;1.20;;;4.30;99.90;;;;;;5041832;28;20309;-55
2023/02/24 02:12:43;;;;;;;7.80;1.00;;;4.30;99.90;;;;;;5046363;28;20368;-50
2023/02/24 02:15:12;;;;;;;7.43;0.90;;;4.30;99.90;;;;;;5045283;28;20226;-56
2023/02/24 02:17:50;;;;;;;6.03;0.87;;;4.30;99.90;;;;;;5044097;28;20191;-54
2023/02/24 02:20:46;;;;;;;3.23;0.87;;;4.30;99.90;;;;;;5041772;28;20246;-57
2023/02/24 02:23:59;;;;;;;1.73;0.93;;;4.20;99.90;;;;;;5050642;28;20215;-49
2023/02/24 02:27:06;;;;;;;3.83;0.87;;;4.20;99.90;;;;;;5045739;28;20298;-52
2023/02/24 02:30:08;;;;;;;4.73;1.30;;;4.20;99.90;;;;;;5063990;28;20230;-50
2023/02/24 02:33:08;;;;;;;3.47;0.73;;;4.20;99.90;;;;;;5057410;28;20204;-52
2023/02/24 02:35:39;;;;;;;1.27;0.70;;;4.20;99.90;;;;;;5046639;28;20670;-53
2023/02/24 02:38:15;;;;;;;2.73;0.93;;;4.10;99.90;;;;;;5041881;28;20665;-48
2023/02/24 02:40:48;;;;;;;3.90;1.50;;;4.10;99.90;;;;;;5039236;28;20219;-57
2023/02/24 02:43:24;;;;;;;3.93;1.03;;;4.10;99.90;;;;;;5047459;28;20203;-50
2023/02/24 02:45:57;;;;;;;2.47;0.83;;;4.10;99.90;;;;;;5042541;28;20211;-54
2023/02/24 02:48:32;;;;;;;5.13;0.97;;;4.10;99.90;;;;;;5044819;28;20554;-51
2023/02/24 02:51:05;;;;;;;6.83;1.23;;;4.20;99.90;;;;;;5041349;28;20237;-53
2023/02/24 02:53:39;;;;;;;2.60;0.93;;;4.20;99.90;;;;;;5042614;28;20211;-49
2023/02/24 02:56:11;;;;;;;4.17;1.17;;;4.20;99.90;;;;;;5031267;28;20212;-52
2023/02/24 02:58:45;;;;;;;6.07;0.80;;;4.20;99.90;;;;;;5051552;28;20278;-57
2023/02/24 03:01:17;;;;;;;8.07;0.80;;;4.20;99.90;;;;;;5041952;28;20242;-49
2023/02/24 03:03:48;;;;;;;3.07;1.20;;;4.20;99.90;;;;;;5043083;28;20264;-51
2023/02/24 03:06:21;;;;;;;5.43;0.93;;;4.20;99.90;;;;;;5042472;28;20195;-49
2023/02/24 03:08:54;;;;;;;7.33;1.10;;;4.20;99.90;;;;;;5043050;28;20223;-56
2023/02/24 03:11:22;;;;;;;7.87;1.03;;;4.20;99.90;;;;;;5041469;28;20218;-51
2023/02/24 03:13:54;;;;;;;5.27;0.87;;;4.20;99.90;;;;;;5053608;28;20207;-55
2023/02/24 03:16:22;;;;;;;7.93;1.60;;;4.20;99.90;;;;;;5043312;28;20207;-50
2023/02/24 03:18:55;;;;;;;4.97;1.00;;;4.10;99.90;;;;;;5042693;28;20203;-55
2023/02/24 03:21:31;;;;;;;5.33;0.97;;;4.10;99.90;;;;;;5062427;28;20222;-53
2023/02/24 03:24:01;;;;;;;5.60;1.20;;;4.20;99.90;;;;;;5058043;28;20771;-51
2023/02/24 03:26:30;;;;;;;2.87;0.77;;;4.20;99.90;;;;;;5036392;28;20245;-53
2023/02/24 03:29:06;;;;;;;6.50;1.00;;;4.10;99.90;;;;;;5043347;28;20222;-51
2023/02/24 03:31:43;;;;;;;6.03;1.20;;;4.10;99.90;;;;;;5044446;28;20210;-48
2023/02/24 03:34:14;;;;;;;2.47;0.83;;;4.10;99.90;;;;;;5041243;28;20202;-52
2023/02/24 03:36:43;;;;;;;10.73;1.00;;;4.10;99.90;;;;;;5042236;28;20605;-54
2023/02/24 03:39:11;;;;;;;4.57;1.00;;;4.10;99.90;;;;;;5059556;28;20281;-51
2023/02/24 03:41:47;;;;;;;4.93;0.80;;;4.10;99.90;;;;;;5031369;28;20291;-54
2023/02/24 03:44:14;;;;;;;3.03;0.70;;;4.10;99.90;;;;;;5051411;28;20295;-52
2023/02/24 03:46:41;;;;;;;8.43;1.17;;;4.10;99.90;;;;;;5043595;28;20207;-54
2023/02/24 03:49:12;;;;;;;5.47;1.10;;;4.10;99.90;;;;;;5038969;28;20294;-53
2023/02/24 03:51:43;;;;;;;3.33;1.00;;;4.10;99.90;;;;;;5043691;28;20226;-57
2023/02/24 03:54:30;;;;;;;2.30;0.50;;;4.10;99.90;;;;;;5040181;28;20203;-54
2023/02/24 03:57:11;;;;;;;5.03;0.93;;;4.10;99.90;;;;;;5035469;28;20214;-57
2023/02/24 03:59:48;;;;;;;3.03;0.93;;;4.10;99.90;;;;;;5051237;28;20788;-53
2023/02/24 04:02:22;;;;;;;5.00;0.83;;;4.10;99.90;;;;;;5036800;28;20630;-57
2023/02/24 04:04:57;;;;;;;4.57;1.17;;;4.10;99.90;;;;;;5047612;28;20210;-51
2023/02/24 04:07:43;;;;;;;5.27;0.77;;;4.10;99.90;;;;;;5041938;28;20203;-53
2023/02/24 04:10:17;;;;;;;3.27;0.60;;;4.10;99.90;;;;;;5050242;28;20253;-53
2023/02/24 04:12:52;;;;;;;5.30;0.60;;;4.10;99.90;;;;;;5037250;28;20203;-54
2023/02/24 04:15:27;;;;;;;2.90;0.70;;;4.10;99.90;;;;;;5051669;28;20201;-56
2023/02/24 04:17:57;;;;;;;5.47;0.63;;;4.10;99.90;;;;;;5045968;28;20203;-54
2023/02/24 04:20:32;;;;;;;4.90;0.80;;;4.10;99.90;;;;;;5038357;28;20219;-51
2023/02/24 04:23:07;;;;;;;6.30;1.37;;;4.10;99.90;;;;;;5047886;28;20577;-55
2023/02/24 04:25:40;;;;;;;5.97;1.03;;;4.10;99.90;;;;;;5053509;28;20907;-49
2023/02/24 04:28:07;;;;;;;6.37;1.03;;;4.10;99.90;;;;;;5037307;28;20203;-55
2023/02/24 04:30:39;;;;;;;8.37;2.00;;;4.10;99.90;;;;;;5047050;28;20215;-52
2023/02/24 04:33:06;;;;;;;4.27;1.10;;;4.10;99.90;;;;;;5044608;28;20289;-52
2023/02/24 04:35:33;;;;;;;6.07;1.63;;;4.00;99.90;;;;;;5044385;28;20199;-51
2023/02/24 04:38:00;;;;;;;5.53;1.23;;;4.10;99.90;;;;;;5043385;28;20197;-52
2023/02/24 04:40:28;;;;;;;4.50;1.43;;;4.10;99.90;;;;;;5038234;28;20215;-52
2023/02/24 04:42:56;;;;;;;6.67;1.07;;;4.10;99.90;;;;;;5034557;28;20221;-52
2023/02/24 04:45:26;;;;;;;4.40;1.13;;;4.00;99.90;;;;;;5042222;28;20228;-55
2023/02/24 04:47:59;;;;;;;4.43;1.37;;;4.10;99.90;;;;;;5042996;28;20203;-48
2023/02/24 04:50:27;;;;;;;6.00;1.33;;;4.10;99.90;;;;;;5052153;28;20236;-56
2023/02/24 04:52:56;;;;;;;3.53;1.10;;;4.10;99.90;;;;;;5056682;28;20194;-53
2023/02/24 04:55:28;;;;;;;7.73;1.50;;;4.00;99.90;;;;;;5046176;28;20194;-56
2023/02/24 04:57:57;;;;;;;3.77;1.20;;;4.00;99.90;;;;;;5041744;28;20498;-50
2023/02/24 05:00:25;;;;;;;4.57;1.37;;;4.00;99.90;;;;;;5046372;28;20223;-55
2023/02/24 05:02:54;;;;;;;5.80;1.03;;;4.00;99.90;;;;;;5050834;28;20203;-53
2023/02/24 05:05:24;;;;;;;8.30;1.37;;;4.00;99.90;;;;;;5050495;28;20281;-56
2023/02/24 05:07:51;;;;;;;3.17;1.23;;;4.00;99.90;;;;;;5045909;28;20210;-53
2023/02/24 05:10:18;;;;;;;3.80;1.00;;;4.00;99.90;;;;;;5045315;28;20222;-56
2023/02/24 05:12:45;;;;;;;4.93;0.93;;;4.00;99.90;;;;;;5048066;28;20219;-56
2023/02/24 05:15:13;;;;;;;6.67;1.77;;;3.90;99.90;;;;;;5042883;28;20195;-50
2023/02/24 05:17:40;;;;;;;8.03;1.30;;;4.00;99.90;;;;;;5047783;28;20282;-53
2023/02/24 05:22:54;;;;;;;2.93;0.90;;;3.90;99.90;;;;;;5042241;28;20211;-55
2023/02/24 05:25:24;;;;;;;7.57;2.50;;;3.90;99.90;;;;;;5045140;28;20199;-49
2023/02/24 05:27:51;;;;;;;4.80;2.17;;;3.90;99.90;;;;;;5060543;28;20229;-52
2023/02/24 05:30:19;;;;;;;10.83;2.70;;;3.90;99.90;;;;;;5040223;28;20582;-54
2023/02/24 05:32:46;;;;;;;2.80;1.10;;;4.00;99.90;;;;;;5050275;28;20500;-54
2023/02/24 05:35:13;;;;;;;5.60;1.33;;;3.90;99.90;;;;;;5052314;28;20204;-56
2023/02/24 05:37:41;;;;;;;8.10;1.27;;;3.90;99.90;;;;;;5049857;28;20269;-51
2023/02/24 05:40:12;;;;;;;4.20;1.43;;;3.90;99.90;;;;;;5047978;28;20632;-50
2023/02/24 05:42:41;;;;;;;6.53;1.43;;;3.90;99.90;;;;;;5062075;28;20187;-56
2023/02/24 05:45:09;;;;;;;6.87;1.50;;;3.90;99.90;;;;;;5051741;28;20647;-52
2023/02/24 05:47:38;;;;;;;3.50;0.90;;;3.90;99.90;;;;;;5048403;28;20861;-51
2023/02/24 05:50:08;;;;;;;5.63;1.47;;;4.00;99.90;;;;;;5045584;28;20747;-52
2023/02/24 05:52:36;;;;;;;7.60;2.10;;;3.90;99.90;;;;;;5041997;28;20721;-52
2023/02/24 05:55:06;;;;;;;4.10;0.90;;;4.00;99.90;;;;;;5037990;28;20218;-51
2023/02/24 05:57:35;;;;;;;5.47;1.30;;;4.00;99.90;;;;;;5046084;28;20195;-54
2023/02/24 06:00:12;;;;;;;5.50;1.40;;;4.00;99.90;;;;;;5030800;28;20457;-52
2023/02/24 06:02:48;;;;;;;4.63;0.90;;;4.00;99.90;;;;;;5042910;28;20222;-56
2023/02/24 06:05:24;;;;;;;3.80;0.90;;;4.00;99.90;;;;;;5050090;28;20279;-55
2023/02/24 06:08:01;;;;;;;4.73;0.70;;;3.90;99.90;;;;;;5039613;28;20668;-53
2023/02/24 06:10:33;;;;;;;13.43;2.37;;;3.80;99.90;;;;;;5051287;28;20639;-53
2023/02/24 06:13:01;;;;;;;7.77;2.10;;;3.80;99.90;;;;;;5045288;28;21010;-52
2023/02/24 06:15:29;;;;;;;5.83;1.60;;;3.70;99.90;;;;;;5030304;28;23705;-53
2023/02/24 06:17:59;;;;;;;6.03;1.90;;;3.70;99.90;;;;;;5054792;28;20214;-54
2023/02/24 06:20:28;;;;;;;10.23;2.97;;;3.70;99.90;;;;;;5044562;28;20685;-52
2023/02/24 06:22:57;;;;;;;2.87;1.30;;;3.60;99.90;;;;;;5038606;28;20554;-56
2023/02/24 06:25:24;;;;;;;8.73;2.60;;;3.60;99.90;;;;;;5048981;28;20198;-52
2023/02/24 06:27:53;;;;;;;7.07;2.17;;;3.50;99.90;;;;;;5049929;28;20269;-53
2023/02/24 06:30:23;;;;;;;3.37;0.87;;;3.50;99.90;;;;;;5029883;28;20245;-53
2023/02/24 06:32:51;;;;;;;5.37;1.37;;;3.40;99.90;;;;;;5055524;28;20710;-55
2023/02/24 06:35:20;;;;;;;3.40;0.90;;;3.30;99.90;;;;;;5050402;28;20949;-53
2023/02/24 06:37:47;;;;;;;2.40;1.10;;;3.30;99.90;;;;;;5048207;28;20256;-50
2023/02/24 06:40:15;;;;;;;5.87;1.30;;;3.30;99.90;;;;;;5052946;28;20272;-53
2023/02/24 06:42:46;;;;;;;3.03;1.40;;;3.30;99.90;;;;;;5047251;28;20211;-50
2023/02/24 06:45:14;;;;;;;4.07;1.03;;;3.20;99.90;;;;;;5042922;28;20199;-55
2023/02/24 06:47:42;;;;;;;4.97;1.10;;;3.20;99.90;;;;;;5041420;28;20235;-51
2023/02/24 06:50:10;;;;;;;2.53;1.07;;;3.20;99.90;;;;;;5054265;28;20211;-55
2023/02/24 06:52:39;;;;;;;2.80;1.10;;;3.20;99.90;;;;;;5053427;28;20242;-54
2023/02/24 06:55:23;;;;;;;2.60;1.47;;;3.20;99.90;;;;;;5041822;28;20196;-54
2023/02/24 06:57:51;;;;;;;4.77;1.73;;;3.20;99.90;;;;;;5055529;28;20210;-50
2023/02/24 07:00:20;;;;;;;4.60;2.77;;;3.20;99.90;;;;;;5045583;28;20222;-53
2023/02/24 07:03:15;;;;;;;5.43;1.70;;;3.10;99.90;;;;;;5035822;28;20218;-60
2023/02/24 07:05:48;;;;;;;3.63;2.27;;;3.10;99.90;;;;;;5052754;28;20234;-53
2023/02/24 07:08:21;;;;;;;4.17;1.57;;;3.10;99.90;;;;;;5047666;28;20689;-56
2023/02/24 07:10:54;;;;;;;3.13;1.70;;;3.10;99.90;;;;;;5046625;28;21112;-52
2023/02/24 07:13:27;;;;;;;3.87;1.93;;;3.10;99.90;;;;;;5035207;28;20314;-55
2023/02/24 07:15:54;;;;;;;4.87;2.00;;;3.10;99.90;;;;;;5049580;28;20265;-54
2023/02/24 07:18:25;;;;;;;4.73;2.10;;;3.10;99.90;;;;;;5037342;28;20214;-58
2023/02/24 07:20:53;;;;;;;5.43;2.47;;;3.10;99.90;;;;;;5055330;28;20211;-50
2023/02/24 07:23:21;;;;;;;4.70;2.73;;;3.00;99.90;;;;;;5048243;28;20201;-56
2023/02/24 07:25:48;;;;;;;10.73;3.60;;;3.00;99.90;;;;;;5045037;28;20226;-50
2023/02/24 07:28:17;;;;;;;7.73;2.30;;;3.00;99.90;;;;;;5046375;28;20691;-54
2023/02/24 07:30:47;;;;;;;6.53;3.10;;;3.00;99.90;;;;;;5041138;28;20258;-53
2023/02/24 07:33:37;;;;;;;5.23;1.90;;;3.00;99.90;;;;;;5035294;28;20261;-51
2023/02/24 07:36:08;;;;;;;2.77;1.87;;;2.90;99.90;;;;;;5039465;28;20206;-52
2023/02/24 07:38:37;;;;;;;7.67;2.47;;;2.90;99.90;;;;;;5053123;28;20194;-52
2023/02/24 07:41:06;;;;;;;7.13;1.80;;;2.90;99.90;;;;;;5045672;28;20223;-53
2023/02/24 07:43:34;;;;;;;8.18;3.20;;;2.90;99.90;;;;;;5048338;28;20441;-50
2023/02/24 07:46:07;;;;;;;6.30;1.67;;;3.00;99.90;;;;;;5033687;28;20345;-55
2023/02/24 07:48:35;;;;;;;6.23;1.80;;;2.90;99.90;;;;;;5048062;28;20278;-51
2023/02/24 07:51:05;;;;;;;9.97;2.40;;;2.90;99.90;;;;;;5040902;28;20223;-56
2023/02/24 07:53:32;;;;;;;10.63;2.60;;;2.90;99.90;;;;;;5049220;28;20215;-51
2023/02/24 07:56:02;;;;;;;9.47;2.20;;;2.80;99.90;;;;;;5051041;28;20207;-58
2023/02/24 07:58:28;;;;;;;14.33;2.90;;;2.80;99.90;;;;;;5041592;28;20211;-49
2023/02/24 08:01:07;;;;;;;16.73;3.67;;;2.80;99.90;;;;;;5044383;28;20230;-53
2023/02/24 08:03:40;;;;;;;5.80;2.40;;;2.80;99.90;;;;;;5036974;28;20194;-51
2023/02/24 08:06:14;;;;;;;9.40;2.70;;;2.80;99.90;;;;;;5028710;28;20217;-52
2023/02/24 08:08:57;;;;;;;8.33;2.50;;;2.80;99.90;;;;;;5047094;28;20206;-59
2023/02/24 08:11:33;;;;;;;5.10;1.83;;;2.70;99.90;;;;;;5041252;28;20235;-50
2023/02/24 08:14:01;;;;;;;4.83;1.70;;;2.70;99.90;;;;;;5046899;28;20285;-55
2023/02/24 08:16:38;;;;;;;5.87;2.50;;;2.70;99.90;;;;;;5036241;28;20638;-53
2023/02/24 08:19:05;;;;;;;17.33;5.30;;;2.80;99.90;;;;;;5051605;28;20223;-49
2023/02/24 08:21:36;;;;;;;9.10;3.07;;;2.80;99.90;;;;;;5034927;28;20218;-49
2023/02/24 08:24:04;;;;;;;8.00;3.40;;;2.90;99.90;;;;;;5047466;28;20217;-52
2023/02/24 08:26:40;;;;;;;2.50;1.70;;;2.90;99.90;;;;;;5039035;28;21009;-50
2023/02/24 08:29:07;;;;;;;4.23;1.77;;;2.80;99.90;;;;;;5048027;28;20201;-55
2023/02/24 08:31:34;;;;;;;17.20;4.80;;;2.80;99.90;;;;;;5048856;28;20281;-54
2023/02/24 08:34:02;;;;;;;10.13;3.33;;;2.90;99.90;;;;;;5040869;28;20199;-54
2023/02/24 08:36:29;;;;;;;3.30;1.60;;;2.90;99.90;;;;;;5033064;28;20271;-50
2023/02/24 08:38:58;;;;;;;3.57;1.40;;;2.90;99.90;;;;;;5045244;28;20207;-51
2023/02/24 08:41:43;;;;;;;9.60;1.87;;;2.90;99.90;;;;;;5037721;28;20276;-50
2023/02/24 08:44:17;;;;;;;8.83;1.70;;;2.90;99.90;;;;;;5050128;28;20207;-55
2023/02/24 08:46:47;;;;;;;4.40;1.40;;;2.90;99.90;;;;;;5041752;28;20207;-49
2023/02/24 08:49:15;;;;;;;4.80;1.43;;;2.90;99.90;;;;;;5046851;28;20198;-51
2023/02/24 08:51:44;;;;;;;7.63;1.90;;;2.90;99.90;;;;;;5050149;28;20202;-52
2023/02/24 08:54:15;;;;;;;4.57;1.70;;;2.90;99.90;;;;;;5040439;28;20544;-55
2023/02/24 08:56:47;;;;;;;11.33;2.50;;;2.90;99.90;;;;;;5046331;28;20217;-50
2023/02/24 08:59:37;;;;;;;5.40;2.20;;;3.00;99.90;;;;;;5056810;28;20210;-57
2023/02/24 09:02:18;;;;;;;4.10;1.93;;;3.10;99.90;;;;;;5047649;28;20207;-49
2023/02/24 09:04:47;;;;;;;5.27;2.90;;;3.10;99.90;;;;;;5054337;28;20245;-50
2023/02/24 09:07:16;;;;;;;2.17;1.13;;;3.00;99.90;;;;;;5038611;28;20192;-55
2023/02/24 09:09:44;;;;;;;4.53;1.87;;;3.00;99.90;;;;;;5046528;28;20227;-50
2023/02/24 09:12:20;;;;;;;3.23;2.37;;;3.00;99.90;;;;;;5041379;28;20223;-55
2023/02/24 09:14:54;;;;;;;5.03;2.60;;;3.00;99.90;;;;;;5059683;28;20202;-54
2023/02/24 09:17:39;;;;;;;3.80;3.03;;;3.00;99.90;;;;;;5046365;28;20575;-54
2023/02/24 09:23:18;;;;;;;3.57;2.67;;;3.00;99.90;;;;;;5037848;28;20797;-56
2023/02/24 09:25:49;;;;;;;5.17;3.47;;;3.00;99.90;;;;;;5048855;28;20221;-56
2023/02/24 09:28:23;;;;;;;3.97;3.57;;;3.00;99.90;;;;;;5040110;28;20206;-56
2023/02/24 09:30:55;;;;;;;8.40;4.73;;;3.00;99.90;;;;;;5055518;28;20633;-56
2023/02/24 09:33:25;;;;;;;6.83;4.60;;;3.10;99.90;;;;;;5046863;28;20222;-57
2023/02/24 09:36:18;;;;;;;6.50;4.67;;;3.10;99.90;;;;;;5063403;28;20839;-56
2023/02/24 09:39:13;;;;;;;7.63;4.10;;;3.20;99.90;;;;;;5043955;28;20700;-49
2023/02/24 09:41:55;;;;;;;6.03;4.67;;;3.10;99.90;;;;;;5043104;28;20205;-52
2023/02/24 09:44:32;;;;;;;7.40;4.43;;;3.20;99.90;;;;;;5042190;28;20198;-56
2023/02/24 09:47:12;;;;;;;9.77;5.53;;;3.20;99.90;;;;;;5055480;28;20695;-50
2023/02/24 09:49:49;;;;;;;8.70;3.90;;;3.20;99.90;;;;;;5048544;28;20222;-54
2023/02/24 09:52:18;;;;;;;3.93;3.57;;;3.30;99.90;;;;;;5054212;28;20210;-57
2023/02/24 09:55:17;;;;;;;4.40;4.00;;;3.30;99.90;;;;;;5040666;28;20203;-52
2023/02/24 09:58:21;;;;;;;6.13;4.20;;;3.30;99.90;;;;;;5040261;28;21136;-49
2023/02/24 10:00:42;;;;;;;5.37;3.33;;;3.30;99.90;;;;;;5052172;28;20210;-54
2023/02/24 10:03:40;;;;;;;3.50;3.20;;;3.30;99.90;;;;;;5042376;28;20199;-54
2023/02/24 10:06:15;;;;;;;3.63;2.47;;;3.30;99.90;;;;;;5045290;28;20199;-56
2023/02/24 10:08:46;;;;;;;2.57;2.30;;;3.40;99.90;;;;;;5054115;28;20285;-53
2023/02/24 10:11:14;;;;;;;3.50;1.97;;;3.40;99.90;;;;;;5033009;28;20250;-54
2023/02/24 10:13:47;;;;;;;3.33;1.70;;;3.40;99.90;;;;;;5044695;28;20318;-50
2023/02/24 10:16:22;;;;;;;2.37;1.73;;;3.40;99.90;;;;;;5050476;28;20285;-51
2023/02/24 10:18:59;;;;;;;2.13;1.60;;;3.40;99.90;;;;;;5053310;28;20266;-50
2023/02/24 10:21:47;;;;;;;3.20;1.40;;;3.50;99.90;;;;;;5051488;28;20218;-52
2023/02/24 10:24:21;;;;;;;2.37;1.67;;;3.50;99.90;;;;;;5032088;28;20206;-54
2023/02/24 10:26:52;;;;;;;1.73;1.17;;;3.50;99.90;;;;;;5050668;28;20198;-53
2023/02/24 10:29:30;;;;;;;2.87;1.80;;;3.50;99.90;;;;;;5039804;28;21219;-54
2023/02/24 10:32:07;;;;;;;4.50;1.63;;;3.50;99.90;;;;;;5044263;28;20202;-54
2023/02/24 10:34:35;;;;;;;3.97;2.23;;;3.60;99.90;;;;;;5052017;28;20209;-53
2023/02/24 10:37:10;;;;;;;3.23;1.70;;;3.60;99.90;;;;;;5045640;28;20219;-53
2023/02/24 10:39:42;;;;;;;3.40;2.47;;;3.60;99.90;;;;;;5049016;28;20709;-55
2023/02/24 10:42:16;;;;;;;2.00;1.90;;;3.70;99.90;;;;;;5033838;28;20207;-55
2023/02/24 10:44:51;;;;;;;4.30;2.33;;;3.70;99.90;;;;;;5047585;28;20281;-54
2023/02/24 10:47:19;;;;;;;4.10;2.50;;;3.70;99.90;;;;;;5045711;28;20190;-53
2023/02/24 10:50:23;;;;;;;2.30;1.80;;;3.80;99.90;;;;;;5052414;28;20245;-55
2023/02/24 10:55:52;;;;;;;3.03;1.90;;;3.80;99.90;;;;;;5031366;28;20218;-56
2023/02/24 10:58:36;;;;;;;2.20;2.00;;;3.90;99.90;;;;;;5041437;28;20529;-57
2023/02/24 11:01:17;;;;;;;5.70;2.90;;;3.90;99.90;;;;;;5043532;28;20584;-56
2023/02/24 11:04:00;;;;;;;1.97;1.83;;;4.00;99.90;;;;;;5053532;28;20669;-54
2023/02/24 11:06:41;;;;;;;8.90;3.33;;;4.00;99.90;;;;;;5043693;28;20664;-54
2023/02/24 11:09:30;;;;;;;4.00;2.73;;;4.10;99.90;;;;;;5047719;28;20210;-52
2023/02/24 11:17:44;;;;;;;6.67;3.10;;;4.30;99.90;;;;;;5054918;28;20304;-52
2023/02/24 11:20:23;;;;;;;6.53;2.30;;;4.40;99.90;;;;;;5050186;28;20970;-54
2023/02/24 11:22:54;;;;;;;8.33;2.50;;;4.40;99.90;;;;;;5040678;28;20199;-53
2023/02/24 11:25:24;;;;;;;3.20;2.50;;;4.50;99.90;;;;;;5043603;28;20290;-52
2023/02/24 11:27:54;;;;;;;2.60;2.40;;;4.50;99.90;;;;;;5041974;28;20218;-53
2023/02/24 11:30:29;;;;;;;3.63;2.47;;;4.50;99.90;;;;;;5044132;28;20211;-51
2023/02/24 11:33:15;;;;;;;5.33;2.53;;;4.60;99.90;;;;;;5048524;28;20207;-49
2023/02/24 11:35:55;;;;;;;4.67;2.57;;;4.50;99.90;;;;;;5052112;28;20198;-51
2023/02/24 11:38:37;;;;;;;5.60;3.30;;;4.50;99.90;;;;;;5044737;28;21614;-53
2023/02/24 11:41:11;;;;;;;6.57;2.60;;;4.60;99.90;;;;;;5048974;28;20705;-54
2023/02/24 11:43:43;;;;;;;6.57;2.80;;;4.60;99.90;;;;;;5036416;28;20201;-50
2023/02/24 11:46:15;;;;;;;2.57;2.37;;;4.60;99.90;;;;;;5039822;28;20230;-55
2023/02/24 11:48:47;;;;;;;4.17;2.47;;;4.70;99.90;;;;;;5050869;28;20241;-52
2023/02/24 11:51:18;;;;;;;2.97;2.30;;;4.70;99.90;;;;;;5045690;28;20218;-53
2023/02/24 11:53:51;;;;;;;5.90;2.60;;;4.70;99.90;;;;;;5043597;28;20928;-54
2023/02/24 11:56:23;;;;;;;2.60;2.40;;;4.80;99.90;;;;;;5045957;28;20202;-53
2023/02/24 11:58:55;;;;;;;3.53;2.40;;;4.80;99.90;;;;;;5035074;28;20553;-53
2023/02/24 12:01:29;;;;;;;4.40;3.03;;;4.90;99.90;;;;;;5040469;28;20590;-51
2023/02/24 12:04:05;;;;;;;4.80;2.33;;;4.90;99.90;;;;;;5049089;28;20670;-53
2023/02/24 12:06:37;;;;;;;4.70;2.40;;;5.00;99.90;;;;;;5044228;28;20263;-52
2023/02/24 12:09:12;;;;;;;3.10;2.80;;;5.00;99.90;;;;;;5042271;28;20211;-57
2023/02/24 12:11:47;;;;;;;8.00;3.00;;;5.10;99.90;;;;;;5041252;28;20245;-53
2023/02/24 12:14:24;;;;;;;7.03;2.93;;;5.10;99.90;;;;;;5023465;28;20211;-52
2023/02/24 12:16:58;;;;;;;3.17;2.47;;;5.20;99.90;;;;;;5054190;28;20213;-55
2023/02/24 12:19:33;;;;;;;6.90;3.30;;;5.20;99.90;;;;;;5039225;28;20199;-54
2023/02/24 12:22:04;;;;;;;4.77;2.60;;;5.30;99.90;;;;;;5031378;28;20286;-51
2023/02/24 12:24:35;;;;;;;6.60;3.10;;;5.30;99.90;;;;;;5040994;28;20215;-52
2023/02/24 12:27:13;;;;;;;6.10;3.70;;;5.40;99.90;;;;;;5045340;28;20194;-55
2023/02/24 12:30:05;;;;;;;7.63;2.57;;;5.40;99.90;;;;;;5033671;28;20221;-56
2023/02/24 12:32:49;;;;;;;5.67;2.80;;;5.50;99.90;;;;;;5046135;28;20206;-56
2023/02/24 12:35:29;;;;;;;8.10;3.10;;;5.50;99.90;;;;;;5049864;28;20183;-52
2023/02/24 12:38:09;;;;;;;5.33;3.37;;;5.60;99.90;;;;;;5043962;28;20959;-54
2023/02/24 12:40:45;;;;;;;10.00;3.17;;;5.60;99.90;;;;;;5048569;28;20964;-56
2023/02/24 12:43:27;;;;;;;7.93;3.00;;;5.60;99.90;;;;;;5037530;28;20214;-56
2023/02/24 12:46:02;;;;;;;8.00;2.17;;;5.60;99.90;;;;;;5035558;28;20207;-53
2023/02/24 12:48:55;;;;;;;3.80;1.77;;;5.50;99.90;;;;;;5041523;28;20191;-53
2023/02/24 12:51:31;;;;;;;7.60;1.80;;;5.50;99.90;;;;;;5051793;28;20210;-52
2023/02/24 12:54:04;;;;;;;4.60;1.83;;;5.40;99.90;;;;;;5039315;28;20238;-54
2023/02/24 12:56:41;;;;;;;4.47;2.40;;;5.40;99.90;;;;;;5042979;28;20754;-54
2023/02/24 12:59:12;;;;;;;5.80;2.63;;;5.60;99.90;;;;;;5055977;28;20192;-55
2023/02/24 13:01:48;;;;;;;7.93;3.57;;;5.80;99.90;;;;;;5032521;28;20225;-55
2023/02/24 13:04:36;;;;;;;12.13;3.90;;;6.10;99.90;;;;;;5047736;28;20194;-56
2023/02/24 13:07:41;;;;;;;8.57;3.80;;;6.20;99.90;;;;;;5047552;28;20572;-57
2023/02/24 13:10:18;;;;;;;10.47;4.17;;;6.40;99.90;;;;;;5042713;28;20222;-55
2023/02/24 13:12:53;;;;;;;9.40;3.53;;;6.40;99.90;;;;;;5038544;28;20206;-55
2023/02/24 13:15:24;;;;;;;6.53;3.00;;;6.50;99.90;;;;;;5041064;28;20737;-56
2023/02/24 13:17:52;;;;;;;6.50;3.80;;;6.50;99.90;;;;;;5042660;28;20211;-53
2023/02/24 13:20:31;;;;;;;7.47;3.70;;;6.50;99.90;;;;;;5049606;28;20223;-57
2023/02/24 13:22:59;;;;;;;8.27;3.73;;;6.60;99.90;;;;;;5046253;28;20191;-56
2023/02/24 13:25:30;;;;;;;14.03;4.17;;;6.60;99.90;;;;;;5047215;28;20657;-53
2023/02/24 13:28:01;;;;;;;9.60;3.83;;;6.70;99.90;;;;;;5037042;28;20215;-57
2023/02/24 13:30:37;;;;;;;8.87;4.23;;;6.70;99.90;;;;;;5034493;28;20222;-54
2023/02/24 13:33:21;;;;;;;14.33;3.67;;;6.60;99.90;;;;;;5039843;28;20215;-54
2023/02/24 13:35:50;;;;;;;8.67;3.93;;;6.60;99.90;;;;;;5032183;28;20226;-57
2023/02/24 13:38:34;;;;;;;16.87;3.80;;;6.60;99.90;;;;;;5048976;28;20841;-55
2023/02/24 13:41:07;;;;;;;11.83;3.37;;;6.50;99.90;;;;;;5050177;28;20343;-57
2023/02/24 13:43:36;;;;;;;13.23;3.70;;;6.50;99.90;;;;;;5047653;28;20559;-56